sensor_id;sensor_type;location;lat;lon;timestamp;P1;durP1;ratioP1;P2;durP2;ratioP2
40621;SDS011;26324;52.040;11.528;2023-04-24T00:01:13;3.25;;;1.60;;
40621;SDS011;26324;52.040;11.528;2023-04-24T00:03:41;2.25;;;1.23;;
40621;SDS011;26324;52.040;11.528;2023-04-24T00:06:09;3.17;;;1.15;;
40621;SDS011;26324;52.040;11.528;2023-04-24T00:08:37;2.60;;;1.23;;
40621;SDS011;26324;52.040;11.528;2023-04-24T00:11:05;1.95;;;1.20;;
40621;SDS011;26324;52.040;11.528;2023-04-24T00:13:32;1.05;;;0.70;;
40621;SDS011;26324;52.040;11.528;2023-04-24T00:16:00;1.77;;;0.95;;
40621;SDS011;26324;52.040;11.528;2023-04-24T00:18:28;1.35;;;0.60;;
40621;SDS011;26324;52.040;11.528;2023-04-24T00:20:55;0.98;;;0.50;;
40621;SDS011;26324;52.040;11.528;2023-04-24T00:23:24;1.05;;;0.50;;
40621;SDS011;26324;52.040;11.528;2023-04-24T00:25:51;1.13;;;0.60;;
40621;SDS011;26324;52.040;11.528;2023-04-24T00:28:18;1.52;;;0.50;;
40621;SDS011;26324;52.040;11.528;2023-04-24T00:30:46;0.82;;;0.40;;
40621;SDS011;26324;52.040;11.528;2023-04-24T00:33:13;0.98;;;0.40;;
40621;SDS011;26324;52.040;11.528;2023-04-24T00:35:44;0.40;;;0.40;;
40621;SDS011;26324;52.040;11.528;2023-04-24T00:38:11;0.70;;;0.40;;
40621;SDS011;26324;52.040;11.528;2023-04-24T00:40:39;0.63;;;0.40;;
40621;SDS011;26324;52.040;11.528;2023-04-24T00:43:08;1.73;;;0.60;;
40621;SDS011;26324;52.040;11.528;2023-04-24T00:45:36;0.60;;;0.40;;
40621;SDS011;26324;52.040;11.528;2023-04-24T00:48:03;0.68;;;0.47;;
40621;SDS011;26324;52.040;11.528;2023-04-24T00:50:32;1.13;;;0.38;;
40621;SDS011;26324;52.040;11.528;2023-04-24T00:53:00;0.68;;;0.40;;
40621;SDS011;26324;52.040;11.528;2023-04-24T00:55:27;1.38;;;0.60;;
40621;SDS011;26324;52.040;11.528;2023-04-24T00:57:55;0.60;;;0.20;;
40621;SDS011;26324;52.040;11.528;2023-04-24T01:00:22;0.50;;;0.32;;
40621;SDS011;26324;52.040;11.528;2023-04-24T01:02:50;1.48;;;0.60;;
40621;SDS011;26324;52.040;11.528;2023-04-24T01:05:19;1.73;;;0.60;;
40621;SDS011;26324;52.040;11.528;2023-04-24T01:07:47;0.60;;;0.40;;
40621;SDS011;26324;52.040;11.528;2023-04-24T01:10:16;1.05;;;0.50;;
40621;SDS011;26324;52.040;11.528;2023-04-24T01:17:41;0.73;;;0.52;;
40621;SDS011;26324;52.040;11.528;2023-04-24T01:20:09;0.70;;;0.50;;
40621;SDS011;26324;52.040;11.528;2023-04-24T01:22:38;2.10;;;0.50;;
40621;SDS011;26324;52.040;11.528;2023-04-24T01:25:05;1.20;;;0.70;;
40621;SDS011;26324;52.040;11.528;2023-04-24T01:27:33;0.60;;;0.30;;
40621;SDS011;26324;52.040;11.528;2023-04-24T01:30:00;0.88;;;0.43;;
40621;SDS011;26324;52.040;11.528;2023-04-24T01:32:29;0.30;;;0.30;;
40621;SDS011;26324;52.040;11.528;2023-04-24T01:34:57;1.35;;;0.65;;
40621;SDS011;26324;52.040;11.528;2023-04-24T01:37:25;1.63;;;0.68;;
40621;SDS011;26324;52.040;11.528;2023-04-24T01:39:53;1.05;;;0.50;;
40621;SDS011;26324;52.040;11.528;2023-04-24T01:42:21;0.70;;;0.60;;
40621;SDS011;26324;52.040;11.528;2023-04-24T01:44:48;0.73;;;0.52;;
40621;SDS011;26324;52.040;11.528;2023-04-24T01:47:17;2.47;;;0.70;;
40621;SDS011;26324;52.040;11.528;2023-04-24T01:49:45;0.73;;;0.60;;
40621;SDS011;26324;52.040;11.528;2023-04-24T01:52:17;1.27;;;0.43;;
40621;SDS011;26324;52.040;11.528;2023-04-24T01:54:47;1.48;;;0.85;;
40621;SDS011;26324;52.040;11.528;2023-04-24T01:57:14;1.25;;;0.60;;
40621;SDS011;26324;52.040;11.528;2023-04-24T01:59:44;1.10;;;0.50;;
40621;SDS011;26324;52.040;11.528;2023-04-24T02:02:17;1.50;;;0.50;;
40621;SDS011;26324;52.040;11.528;2023-04-24T02:04:50;1.02;;;0.60;;
40621;SDS011;26324;52.040;11.528;2023-04-24T02:07:18;0.63;;;0.50;;
40621;SDS011;26324;52.040;11.528;2023-04-24T02:09:45;0.50;;;0.40;;
40621;SDS011;26324;52.040;11.528;2023-04-24T02:12:15;0.68;;;0.50;;
40621;SDS011;26324;52.040;11.528;2023-04-24T02:14:44;0.50;;;0.40;;
40621;SDS011;26324;52.040;11.528;2023-04-24T02:17:11;1.40;;;0.60;;
40621;SDS011;26324;52.040;11.528;2023-04-24T02:19:39;0.82;;;0.57;;
40621;SDS011;26324;52.040;11.528;2023-04-24T02:22:07;0.57;;;0.45;;
40621;SDS011;26324;52.040;11.528;2023-04-24T02:24:34;0.90;;;0.60;;
40621;SDS011;26324;52.040;11.528;2023-04-24T02:27:02;2.83;;;0.50;;
40621;SDS011;26324;52.040;11.528;2023-04-24T02:29:31;1.15;;;0.55;;
40621;SDS011;26324;52.040;11.528;2023-04-24T02:32:02;1.40;;;0.65;;
40621;SDS011;26324;52.040;11.528;2023-04-24T02:34:33;0.73;;;0.43;;
40621;SDS011;26324;52.040;11.528;2023-04-24T02:37:02;1.25;;;0.73;;
40621;SDS011;26324;52.040;11.528;2023-04-24T02:39:30;1.05;;;0.50;;
40621;SDS011;26324;52.040;11.528;2023-04-24T02:41:58;1.05;;;0.70;;
40621;SDS011;26324;52.040;11.528;2023-04-24T02:44:31;1.70;;;0.70;;
40621;SDS011;26324;52.040;11.528;2023-04-24T02:46:59;1.15;;;0.52;;
40621;SDS011;26324;52.040;11.528;2023-04-24T02:49:26;3.30;;;0.40;;
40621;SDS011;26324;52.040;11.528;2023-04-24T02:51:54;1.20;;;0.60;;
40621;SDS011;26324;52.040;11.528;2023-04-24T02:54:21;1.00;;;0.52;;
40621;SDS011;26324;52.040;11.528;2023-04-24T02:56:51;0.90;;;0.50;;
40621;SDS011;26324;52.040;11.528;2023-04-24T02:59:18;1.13;;;0.50;;
40621;SDS011;26324;52.040;11.528;2023-04-24T03:01:47;1.30;;;0.50;;
40621;SDS011;26324;52.040;11.528;2023-04-24T03:04:16;1.45;;;0.60;;
40621;SDS011;26324;52.040;11.528;2023-04-24T03:06:47;1.02;;;0.52;;
40621;SDS011;26324;52.040;11.528;2023-04-24T03:09:15;0.60;;;0.40;;
40621;SDS011;26324;52.040;11.528;2023-04-24T03:11:49;1.02;;;0.43;;
40621;SDS011;26324;52.040;11.528;2023-04-24T03:14:16;1.10;;;0.57;;
40621;SDS011;26324;52.040;11.528;2023-04-24T03:16:44;1.25;;;0.50;;
40621;SDS011;26324;52.040;11.528;2023-04-24T03:19:12;1.80;;;0.52;;
40621;SDS011;26324;52.040;11.528;2023-04-24T03:21:52;1.00;;;0.60;;
40621;SDS011;26324;52.040;11.528;2023-04-24T03:24:19;1.00;;;0.50;;
40621;SDS011;26324;52.040;11.528;2023-04-24T03:26:48;0.70;;;0.50;;
40621;SDS011;26324;52.040;11.528;2023-04-24T03:29:27;0.68;;;0.38;;
40621;SDS011;26324;52.040;11.528;2023-04-24T03:31:57;0.60;;;0.50;;
40621;SDS011;26324;52.040;11.528;2023-04-24T03:34:25;0.93;;;0.50;;
40621;SDS011;26324;52.040;11.528;2023-04-24T03:36:53;1.75;;;0.70;;
40621;SDS011;26324;52.040;11.528;2023-04-24T03:39:20;0.60;;;0.30;;
40621;SDS011;26324;52.040;11.528;2023-04-24T03:41:53;0.52;;;0.35;;
40621;SDS011;26324;52.040;11.528;2023-04-24T03:44:26;0.57;;;0.38;;
40621;SDS011;26324;52.040;11.528;2023-04-24T03:46:53;0.85;;;0.60;;
40621;SDS011;26324;52.040;11.528;2023-04-24T03:49:22;0.38;;;0.30;;
40621;SDS011;26324;52.040;11.528;2023-04-24T03:51:50;0.77;;;0.43;;
40621;SDS011;26324;52.040;11.528;2023-04-24T03:54:21;1.30;;;0.47;;
40621;SDS011;26324;52.040;11.528;2023-04-24T03:56:50;0.43;;;0.30;;
40621;SDS011;26324;52.040;11.528;2023-04-24T03:59:17;0.70;;;0.43;;
40621;SDS011;26324;52.040;11.528;2023-04-24T04:01:52;0.65;;;0.40;;
40621;SDS011;26324;52.040;11.528;2023-04-24T04:04:20;1.13;;;0.30;;
40621;SDS011;26324;52.040;11.528;2023-04-24T04:06:47;0.40;;;0.20;;
40621;SDS011;26324;52.040;11.528;2023-04-24T04:12:02;0.68;;;0.30;;
40621;SDS011;26324;52.040;11.528;2023-04-24T04:14:31;0.75;;;0.40;;
40621;SDS011;26324;52.040;11.528;2023-04-24T04:16:59;1.88;;;0.50;;
40621;SDS011;26324;52.040;11.528;2023-04-24T04:19:27;0.75;;;0.45;;
40621;SDS011;26324;52.040;11.528;2023-04-24T04:21:55;0.40;;;0.30;;
40621;SDS011;26324;52.040;11.528;2023-04-24T04:24:35;0.47;;;0.38;;
40621;SDS011;26324;52.040;11.528;2023-04-24T04:27:05;0.93;;;0.45;;
40621;SDS011;26324;52.040;11.528;2023-04-24T04:29:45;1.00;;;0.50;;
40621;SDS011;26324;52.040;11.528;2023-04-24T04:32:15;0.77;;;0.43;;
40621;SDS011;26324;52.040;11.528;2023-04-24T04:34:43;0.60;;;0.50;;
40621;SDS011;26324;52.040;11.528;2023-04-24T04:37:12;2.25;;;0.90;;
40621;SDS011;26324;52.040;11.528;2023-04-24T04:39:59;2.40;;;1.17;;
40621;SDS011;26324;52.040;11.528;2023-04-24T04:42:31;2.42;;;1.30;;
40621;SDS011;26324;52.040;11.528;2023-04-24T04:44:59;3.03;;;1.00;;
40621;SDS011;26324;52.040;11.528;2023-04-24T04:47:37;0.90;;;0.50;;
40621;SDS011;26324;52.040;11.528;2023-04-24T04:50:07;1.17;;;0.70;;
40621;SDS011;26324;52.040;11.528;2023-04-24T04:52:35;0.63;;;0.43;;
40621;SDS011;26324;52.040;11.528;2023-04-24T04:55:13;0.38;;;0.32;;
40621;SDS011;26324;52.040;11.528;2023-04-24T04:58:05;0.70;;;0.35;;
40621;SDS011;26324;52.040;11.528;2023-04-24T05:00:34;0.28;;;0.28;;
40621;SDS011;26324;52.040;11.528;2023-04-24T05:03:13;1.30;;;0.75;;
40621;SDS011;26324;52.040;11.528;2023-04-24T05:05:44;1.00;;;0.40;;
40621;SDS011;26324;52.040;11.528;2023-04-24T05:08:14;0.75;;;0.47;;
40621;SDS011;26324;52.040;11.528;2023-04-24T05:10:54;2.10;;;1.13;;
40621;SDS011;26324;52.040;11.528;2023-04-24T05:13:31;0.73;;;0.50;;
40621;SDS011;26324;52.040;11.528;2023-04-24T05:16:12;0.77;;;0.50;;
40621;SDS011;26324;52.040;11.528;2023-04-24T05:18:40;0.50;;;0.50;;
40621;SDS011;26324;52.040;11.528;2023-04-24T05:21:10;2.28;;;0.80;;
40621;SDS011;26324;52.040;11.528;2023-04-24T05:23:40;0.55;;;0.50;;
40621;SDS011;26324;52.040;11.528;2023-04-24T05:26:08;1.00;;;0.45;;
40621;SDS011;26324;52.040;11.528;2023-04-24T05:28:35;0.47;;;0.40;;
40621;SDS011;26324;52.040;11.528;2023-04-24T05:31:07;1.38;;;0.50;;
40621;SDS011;26324;52.040;11.528;2023-04-24T05:33:35;1.00;;;0.55;;
40621;SDS011;26324;52.040;11.528;2023-04-24T05:36:03;1.15;;;0.40;;
40621;SDS011;26324;52.040;11.528;2023-04-24T05:38:32;0.77;;;0.35;;
40621;SDS011;26324;52.040;11.528;2023-04-24T05:41:00;0.60;;;0.50;;
40621;SDS011;26324;52.040;11.528;2023-04-24T05:43:27;0.50;;;0.40;;
40621;SDS011;26324;52.040;11.528;2023-04-24T05:45:54;0.52;;;0.40;;
40621;SDS011;26324;52.040;11.528;2023-04-24T05:48:22;0.82;;;0.50;;
40621;SDS011;26324;52.040;11.528;2023-04-24T05:50:50;1.33;;;0.63;;
40621;SDS011;26324;52.040;11.528;2023-04-24T05:55:46;1.20;;;0.57;;
40621;SDS011;26324;52.040;11.528;2023-04-24T05:58:14;0.93;;;0.70;;
40621;SDS011;26324;52.040;11.528;2023-04-24T06:00:41;0.98;;;0.60;;
40621;SDS011;26324;52.040;11.528;2023-04-24T06:03:11;2.25;;;0.57;;
40621;SDS011;26324;52.040;11.528;2023-04-24T06:05:40;1.20;;;0.98;;
40621;SDS011;26324;52.040;11.528;2023-04-24T06:08:07;0.88;;;0.50;;
40621;SDS011;26324;52.040;11.528;2023-04-24T06:10:38;0.77;;;0.50;;
40621;SDS011;26324;52.040;11.528;2023-04-24T06:13:07;2.63;;;0.60;;
40621;SDS011;26324;52.040;11.528;2023-04-24T06:15:37;2.28;;;1.17;;
40621;SDS011;26324;52.040;11.528;2023-04-24T06:18:07;0.88;;;0.60;;
40621;SDS011;26324;52.040;11.528;2023-04-24T06:20:37;1.33;;;0.70;;
40621;SDS011;26324;52.040;11.528;2023-04-24T06:23:05;1.45;;;0.70;;
40621;SDS011;26324;52.040;11.528;2023-04-24T06:25:33;0.68;;;0.50;;
40621;SDS011;26324;52.040;11.528;2023-04-24T06:28:01;0.93;;;0.52;;
40621;SDS011;26324;52.040;11.528;2023-04-24T06:30:43;1.13;;;0.68;;
40621;SDS011;26324;52.040;11.528;2023-04-24T06:33:11;0.75;;;0.63;;
40621;SDS011;26324;52.040;11.528;2023-04-24T06:35:48;2.78;;;1.00;;
40621;SDS011;26324;52.040;11.528;2023-04-24T06:38:15;2.05;;;0.85;;
40621;SDS011;26324;52.040;11.528;2023-04-24T06:40:43;1.15;;;0.80;;
40621;SDS011;26324;52.040;11.528;2023-04-24T06:43:10;1.38;;;0.88;;
40621;SDS011;26324;52.040;11.528;2023-04-24T06:45:39;1.40;;;0.68;;
40621;SDS011;26324;52.040;11.528;2023-04-24T06:48:07;0.90;;;0.75;;
40621;SDS011;26324;52.040;11.528;2023-04-24T06:50:34;3.30;;;0.70;;
40621;SDS011;26324;52.040;11.528;2023-04-24T06:53:02;1.42;;;0.63;;
40621;SDS011;26324;52.040;11.528;2023-04-24T06:55:29;3.33;;;0.88;;
40621;SDS011;26324;52.040;11.528;2023-04-24T06:57:56;2.42;;;0.90;;
40621;SDS011;26324;52.040;11.528;2023-04-24T07:00:24;1.50;;;0.70;;
40621;SDS011;26324;52.040;11.528;2023-04-24T07:02:52;2.08;;;0.63;;
40621;SDS011;26324;52.040;11.528;2023-04-24T07:05:19;2.65;;;0.90;;
40621;SDS011;26324;52.040;11.528;2023-04-24T07:07:47;1.65;;;0.60;;
40621;SDS011;26324;52.040;11.528;2023-04-24T07:10:14;1.30;;;0.70;;
40621;SDS011;26324;52.040;11.528;2023-04-24T07:12:42;0.50;;;0.43;;
40621;SDS011;26324;52.040;11.528;2023-04-24T07:15:09;0.75;;;0.43;;
40621;SDS011;26324;52.040;11.528;2023-04-24T07:17:37;1.15;;;0.60;;
40621;SDS011;26324;52.040;11.528;2023-04-24T07:20:05;0.75;;;0.50;;
40621;SDS011;26324;52.040;11.528;2023-04-24T07:22:37;2.15;;;0.60;;
40621;SDS011;26324;52.040;11.528;2023-04-24T07:25:05;0.38;;;0.38;;
40621;SDS011;26324;52.040;11.528;2023-04-24T07:27:32;1.02;;;0.60;;
40621;SDS011;26324;52.040;11.528;2023-04-24T07:30:00;1.48;;;0.50;;
40621;SDS011;26324;52.040;11.528;2023-04-24T07:32:28;0.70;;;0.50;;
40621;SDS011;26324;52.040;11.528;2023-04-24T07:34:55;0.40;;;0.35;;
40621;SDS011;26324;52.040;11.528;2023-04-24T07:37:23;1.30;;;0.50;;
40621;SDS011;26324;52.040;11.528;2023-04-24T07:39:50;1.33;;;0.50;;
40621;SDS011;26324;52.040;11.528;2023-04-24T07:42:18;1.02;;;0.35;;
40621;SDS011;26324;52.040;11.528;2023-04-24T07:44:45;4.05;;;0.43;;
40621;SDS011;26324;52.040;11.528;2023-04-24T07:47:14;1.42;;;0.40;;
40621;SDS011;26324;52.040;11.528;2023-04-24T07:49:42;3.40;;;0.70;;
40621;SDS011;26324;52.040;11.528;2023-04-24T07:52:10;0.90;;;0.45;;
40621;SDS011;26324;52.040;11.528;2023-04-24T07:54:38;0.63;;;0.40;;
40621;SDS011;26324;52.040;11.528;2023-04-24T07:57:05;1.80;;;1.20;;
40621;SDS011;26324;52.040;11.528;2023-04-24T07:59:33;0.68;;;0.40;;
40621;SDS011;26324;52.040;11.528;2023-04-24T08:02:01;0.90;;;0.40;;
40621;SDS011;26324;52.040;11.528;2023-04-24T08:04:28;0.55;;;0.28;;
40621;SDS011;26324;52.040;11.528;2023-04-24T08:06:56;0.45;;;0.35;;
40621;SDS011;26324;52.040;11.528;2023-04-24T08:09:23;0.80;;;0.38;;
40621;SDS011;26324;52.040;11.528;2023-04-24T08:11:53;0.70;;;0.30;;
40621;SDS011;26324;52.040;11.528;2023-04-24T08:14:20;1.17;;;0.40;;
40621;SDS011;26324;52.040;11.528;2023-04-24T08:16:48;1.85;;;0.68;;
40621;SDS011;26324;52.040;11.528;2023-04-24T08:19:15;0.30;;;0.20;;
40621;SDS011;26324;52.040;11.528;2023-04-24T08:21:42;0.40;;;0.40;;
40621;SDS011;26324;52.040;11.528;2023-04-24T08:24:09;0.38;;;0.30;;
40621;SDS011;26324;52.040;11.528;2023-04-24T08:26:39;0.40;;;0.30;;
40621;SDS011;26324;52.040;11.528;2023-04-24T08:29:06;0.40;;;0.32;;
40621;SDS011;26324;52.040;11.528;2023-04-24T08:31:34;0.65;;;0.40;;
40621;SDS011;26324;52.040;11.528;2023-04-24T08:34:02;0.68;;;0.47;;
40621;SDS011;26324;52.040;11.528;2023-04-24T08:36:29;0.70;;;0.40;;
40621;SDS011;26324;52.040;11.528;2023-04-24T08:39:12;1.00;;;0.40;;
40621;SDS011;26324;52.040;11.528;2023-04-24T08:41:41;1.17;;;0.40;;
40621;SDS011;26324;52.040;11.528;2023-04-24T08:44:12;1.23;;;0.40;;
40621;SDS011;26324;52.040;11.528;2023-04-24T08:46:42;0.75;;;0.40;;
40621;SDS011;26324;52.040;11.528;2023-04-24T08:49:14;2.63;;;0.40;;
40621;SDS011;26324;52.040;11.528;2023-04-24T08:51:44;0.45;;;0.35;;
40621;SDS011;26324;52.040;11.528;2023-04-24T08:54:14;0.90;;;0.60;;
40621;SDS011;26324;52.040;11.528;2023-04-24T08:56:43;0.25;;;0.20;;
40621;SDS011;26324;52.040;11.528;2023-04-24T08:59:14;0.45;;;0.30;;
40621;SDS011;26324;52.040;11.528;2023-04-24T09:01:42;0.40;;;0.40;;
40621;SDS011;26324;52.040;11.528;2023-04-24T09:04:13;0.40;;;0.30;;
40621;SDS011;26324;52.040;11.528;2023-04-24T09:06:43;0.68;;;0.47;;
40621;SDS011;26324;52.040;11.528;2023-04-24T09:09:11;0.52;;;0.40;;
40621;SDS011;26324;52.040;11.528;2023-04-24T09:11:39;0.50;;;0.35;;
40621;SDS011;26324;52.040;11.528;2023-04-24T09:14:07;0.85;;;0.47;;
40621;SDS011;26324;52.040;11.528;2023-04-24T09:16:36;0.63;;;0.43;;
40621;SDS011;26324;52.040;11.528;2023-04-24T09:19:03;1.10;;;0.40;;
40621;SDS011;26324;52.040;11.528;2023-04-24T09:21:35;0.80;;;0.65;;
40621;SDS011;26324;52.040;11.528;2023-04-24T09:24:07;0.47;;;0.30;;
40621;SDS011;26324;52.040;11.528;2023-04-24T09:26:40;0.40;;;0.35;;
40621;SDS011;26324;52.040;11.528;2023-04-24T09:29:13;0.95;;;0.38;;
40621;SDS011;26324;52.040;11.528;2023-04-24T09:31:46;0.82;;;0.47;;
40621;SDS011;26324;52.040;11.528;2023-04-24T09:34:13;1.15;;;0.43;;
40621;SDS011;26324;52.040;11.528;2023-04-24T09:36:42;0.60;;;0.40;;
40621;SDS011;26324;52.040;11.528;2023-04-24T09:39:10;1.50;;;0.80;;
40621;SDS011;26324;52.040;11.528;2023-04-24T09:41:52;0.60;;;0.50;;
40621;SDS011;26324;52.040;11.528;2023-04-24T09:44:24;0.60;;;0.47;;
40621;SDS011;26324;52.040;11.528;2023-04-24T09:46:59;0.80;;;0.60;;
40621;SDS011;26324;52.040;11.528;2023-04-24T09:49:28;1.10;;;0.50;;
40621;SDS011;26324;52.040;11.528;2023-04-24T09:52:03;1.13;;;0.60;;
40621;SDS011;26324;52.040;11.528;2023-04-24T09:54:35;0.63;;;0.57;;
40621;SDS011;26324;52.040;11.528;2023-04-24T09:57:04;1.52;;;0.70;;
40621;SDS011;26324;52.040;11.528;2023-04-24T09:59:33;1.40;;;0.70;;
40621;SDS011;26324;52.040;11.528;2023-04-24T10:02:16;2.97;;;0.70;;
40621;SDS011;26324;52.040;11.528;2023-04-24T10:04:53;1.45;;;0.70;;
40621;SDS011;26324;52.040;11.528;2023-04-24T10:07:25;1.00;;;0.73;;
40621;SDS011;26324;52.040;11.528;2023-04-24T10:09:53;1.55;;;0.80;;
40621;SDS011;26324;52.040;11.528;2023-04-24T10:12:21;1.02;;;0.90;;
40621;SDS011;26324;52.040;11.528;2023-04-24T10:14:49;1.52;;;0.85;;
40621;SDS011;26324;52.040;11.528;2023-04-24T10:17:17;1.20;;;0.90;;
40621;SDS011;26324;52.040;11.528;2023-04-24T10:19:46;0.85;;;0.70;;
40621;SDS011;26324;52.040;11.528;2023-04-24T10:22:14;1.10;;;0.70;;
40621;SDS011;26324;52.040;11.528;2023-04-24T10:24:44;2.75;;;0.90;;
40621;SDS011;26324;52.040;11.528;2023-04-24T10:27:19;0.93;;;0.60;;
40621;SDS011;26324;52.040;11.528;2023-04-24T10:29:48;0.60;;;0.40;;
40621;SDS011;26324;52.040;11.528;2023-04-24T10:32:17;1.27;;;0.60;;
40621;SDS011;26324;52.040;11.528;2023-04-24T10:34:45;1.58;;;0.80;;
40621;SDS011;26324;52.040;11.528;2023-04-24T10:37:12;1.10;;;0.60;;
40621;SDS011;26324;52.040;11.528;2023-04-24T10:39:40;0.75;;;0.52;;
40621;SDS011;26324;52.040;11.528;2023-04-24T10:42:13;1.13;;;0.68;;
40621;SDS011;26324;52.040;11.528;2023-04-24T10:44:42;0.90;;;0.50;;
40621;SDS011;26324;52.040;11.528;2023-04-24T10:47:13;1.02;;;0.60;;
40621;SDS011;26324;52.040;11.528;2023-04-24T10:49:41;1.05;;;0.63;;
40621;SDS011;26324;52.040;11.528;2023-04-24T10:52:09;1.52;;;0.57;;
40621;SDS011;26324;52.040;11.528;2023-04-24T10:54:46;1.38;;;0.50;;
40621;SDS011;26324;52.040;11.528;2023-04-24T10:59:45;0.98;;;0.60;;
40621;SDS011;26324;52.040;11.528;2023-04-24T11:02:14;1.55;;;0.77;;
40621;SDS011;26324;52.040;11.528;2023-04-24T11:04:44;0.95;;;0.60;;
40621;SDS011;26324;52.040;11.528;2023-04-24T11:07:13;1.35;;;0.65;;
40621;SDS011;26324;52.040;11.528;2023-04-24T11:09:40;1.17;;;0.70;;
40621;SDS011;26324;52.040;11.528;2023-04-24T11:12:10;1.25;;;0.85;;
40621;SDS011;26324;52.040;11.528;2023-04-24T11:14:59;2.80;;;0.82;;
40621;SDS011;26324;52.040;11.528;2023-04-24T11:17:29;1.40;;;0.70;;
40621;SDS011;26324;52.040;11.528;2023-04-24T11:20:06;1.02;;;0.60;;
40621;SDS011;26324;52.040;11.528;2023-04-24T11:22:53;1.52;;;0.90;;
40621;SDS011;26324;52.040;11.528;2023-04-24T11:29:42;2.47;;;0.82;;
40621;SDS011;26324;52.040;11.528;2023-04-24T11:34:41;1.42;;;1.00;;
40621;SDS011;26324;52.040;11.528;2023-04-24T11:37:13;2.33;;;0.82;;
40621;SDS011;26324;52.040;11.528;2023-04-24T11:39:40;2.38;;;0.90;;
40621;SDS011;26324;52.040;11.528;2023-04-24T11:42:12;2.08;;;1.00;;
40621;SDS011;26324;52.040;11.528;2023-04-24T11:44:42;1.65;;;0.95;;
40621;SDS011;26324;52.040;11.528;2023-04-24T11:47:10;1.52;;;0.75;;
40621;SDS011;26324;52.040;11.528;2023-04-24T11:49:37;1.33;;;0.70;;
40621;SDS011;26324;52.040;11.528;2023-04-24T11:52:05;1.20;;;0.65;;
40621;SDS011;26324;52.040;11.528;2023-04-24T11:54:32;1.35;;;0.70;;
40621;SDS011;26324;52.040;11.528;2023-04-24T11:57:03;0.93;;;0.73;;
40621;SDS011;26324;52.040;11.528;2023-04-24T11:59:36;1.80;;;0.70;;
40621;SDS011;26324;52.040;11.528;2023-04-24T12:02:04;1.45;;;0.90;;
40621;SDS011;26324;52.040;11.528;2023-04-24T12:04:42;1.00;;;0.70;;
40621;SDS011;26324;52.040;11.528;2023-04-24T12:07:10;1.38;;;0.80;;
40621;SDS011;26324;52.040;11.528;2023-04-24T12:10:20;1.33;;;0.80;;
40621;SDS011;26324;52.040;11.528;2023-04-24T12:12:28;0.88;;;0.60;;
40621;SDS011;26324;52.040;11.528;2023-04-24T12:14:56;1.10;;;0.60;;
40621;SDS011;26324;52.040;11.528;2023-04-24T12:17:29;1.20;;;0.80;;
40621;SDS011;26324;52.040;11.528;2023-04-24T12:19:58;4.10;;;0.80;;
40621;SDS011;26324;52.040;11.528;2023-04-24T12:22:28;1.85;;;0.73;;
40621;SDS011;26324;52.040;11.528;2023-04-24T12:25:10;1.75;;;0.80;;
40621;SDS011;26324;52.040;11.528;2023-04-24T12:27:38;1.90;;;0.70;;
40621;SDS011;26324;52.040;11.528;2023-04-24T12:30:17;0.80;;;0.60;;
40621;SDS011;26324;52.040;11.528;2023-04-24T12:32:48;0.90;;;0.40;;
40621;SDS011;26324;52.040;11.528;2023-04-24T12:35:28;1.10;;;0.60;;
40621;SDS011;26324;52.040;11.528;2023-04-24T12:38:05;0.95;;;0.70;;
40621;SDS011;26324;52.040;11.528;2023-04-24T12:40:34;1.83;;;0.73;;
40621;SDS011;26324;52.040;11.528;2023-04-24T12:43:02;1.00;;;0.88;;
40621;SDS011;26324;52.040;11.528;2023-04-24T12:45:39;1.23;;;0.75;;
40621;SDS011;26324;52.040;11.528;2023-04-24T12:48:07;1.40;;;0.75;;
40621;SDS011;26324;52.040;11.528;2023-04-24T12:50:34;0.82;;;0.50;;
40621;SDS011;26324;52.040;11.528;2023-04-24T12:53:02;0.98;;;0.70;;
40621;SDS011;26324;52.040;11.528;2023-04-24T12:55:29;1.55;;;0.70;;
40621;SDS011;26324;52.040;11.528;2023-04-24T12:57:57;1.83;;;0.60;;
40621;SDS011;26324;52.040;11.528;2023-04-24T13:00:25;0.85;;;0.60;;
40621;SDS011;26324;52.040;11.528;2023-04-24T13:02:52;1.85;;;0.90;;
40621;SDS011;26324;52.040;11.528;2023-04-24T13:05:20;1.27;;;0.65;;
40621;SDS011;26324;52.040;11.528;2023-04-24T13:07:50;1.50;;;0.77;;
40621;SDS011;26324;52.040;11.528;2023-04-24T13:10:18;1.00;;;0.60;;
40621;SDS011;26324;52.040;11.528;2023-04-24T13:12:45;1.15;;;0.60;;
40621;SDS011;26324;52.040;11.528;2023-04-24T13:15:13;1.25;;;0.70;;
40621;SDS011;26324;52.040;11.528;2023-04-24T13:17:40;0.95;;;0.70;;
40621;SDS011;26324;52.040;11.528;2023-04-24T13:20:07;2.10;;;0.80;;
40621;SDS011;26324;52.040;11.528;2023-04-24T13:22:35;1.05;;;0.70;;
40621;SDS011;26324;52.040;11.528;2023-04-24T13:25:03;1.25;;;0.70;;
40621;SDS011;26324;52.040;11.528;2023-04-24T13:27:32;1.92;;;0.60;;
40621;SDS011;26324;52.040;11.528;2023-04-24T13:30:00;1.42;;;0.77;;
40621;SDS011;26324;52.040;11.528;2023-04-24T13:32:27;1.23;;;0.70;;
40621;SDS011;26324;52.040;11.528;2023-04-24T13:34:56;1.08;;;0.70;;
40621;SDS011;26324;52.040;11.528;2023-04-24T13:37:23;0.98;;;0.63;;
40621;SDS011;26324;52.040;11.528;2023-04-24T13:39:50;0.70;;;0.50;;
40621;SDS011;26324;52.040;11.528;2023-04-24T13:42:18;1.15;;;0.60;;
40621;SDS011;26324;52.040;11.528;2023-04-24T13:44:46;1.95;;;0.70;;
40621;SDS011;26324;52.040;11.528;2023-04-24T13:47:14;2.33;;;0.70;;
40621;SDS011;26324;52.040;11.528;2023-04-24T13:49:41;2.50;;;0.82;;
40621;SDS011;26324;52.040;11.528;2023-04-24T13:52:09;1.73;;;0.95;;
40621;SDS011;26324;52.040;11.528;2023-04-24T13:54:37;1.92;;;1.00;;
40621;SDS011;26324;52.040;11.528;2023-04-24T13:57:04;1.45;;;0.60;;
40621;SDS011;26324;52.040;11.528;2023-04-24T13:59:31;1.80;;;0.77;;
40621;SDS011;26324;52.040;11.528;2023-04-24T14:01:59;2.55;;;0.70;;
40621;SDS011;26324;52.040;11.528;2023-04-24T14:04:26;0.45;;;0.20;;
40621;SDS011;26324;52.040;11.528;2023-04-24T14:06:54;0.65;;;0.38;;
40621;SDS011;26324;52.040;11.528;2023-04-24T14:09:21;1.73;;;0.82;;
40621;SDS011;26324;52.040;11.528;2023-04-24T14:11:49;0.50;;;0.28;;
40621;SDS011;26324;52.040;11.528;2023-04-24T14:14:16;0.38;;;0.20;;
40621;SDS011;26324;52.040;11.528;2023-04-24T14:16:43;0.68;;;0.30;;
40621;SDS011;26324;52.040;11.528;2023-04-24T14:19:11;1.85;;;0.40;;
40621;SDS011;26324;52.040;11.528;2023-04-24T14:21:38;0.70;;;0.20;;
40621;SDS011;26324;52.040;11.528;2023-04-24T14:24:05;0.30;;;0.20;;
40621;SDS011;26324;52.040;11.528;2023-04-24T14:26:32;0.20;;;0.20;;
40621;SDS011;26324;52.040;11.528;2023-04-24T14:29:00;0.57;;;0.30;;
40621;SDS011;26324;52.040;11.528;2023-04-24T14:31:30;0.40;;;0.20;;
40621;SDS011;26324;52.040;11.528;2023-04-24T14:33:58;0.50;;;0.30;;
40621;SDS011;26324;52.040;11.528;2023-04-24T14:36:25;0.55;;;0.30;;
40621;SDS011;26324;52.040;11.528;2023-04-24T14:38:52;1.65;;;0.25;;
40621;SDS011;26324;52.040;11.528;2023-04-24T14:41:20;0.65;;;0.22;;
40621;SDS011;26324;52.040;11.528;2023-04-24T14:43:47;0.20;;;0.20;;
40621;SDS011;26324;52.040;11.528;2023-04-24T14:46:14;0.30;;;0.20;;
40621;SDS011;26324;52.040;11.528;2023-04-24T14:48:42;0.82;;;0.20;;
40621;SDS011;26324;52.040;11.528;2023-04-24T14:51:09;1.17;;;0.20;;
40621;SDS011;26324;52.040;11.528;2023-04-24T14:53:36;0.20;;;0.13;;
40621;SDS011;26324;52.040;11.528;2023-04-24T14:56:04;0.25;;;0.10;;
40621;SDS011;26324;52.040;11.528;2023-04-24T14:58:31;0.77;;;0.10;;
40621;SDS011;26324;52.040;11.528;2023-04-24T15:00:59;0.10;;;0.00;;
40621;SDS011;26324;52.040;11.528;2023-04-24T15:03:27;0.75;;;0.10;;
40621;SDS011;26324;52.040;11.528;2023-04-24T15:08:24;4.55;;;0.35;;